sensor_id;sensor_type;location;lat;lon;timestamp;P1;durP1;ratioP1;P2;durP2;ratioP2
12052;SDS011;6087;48.982;12.064;2022-07-10T00:02:27;3.83;;;3.53;;
12052;SDS011;6087;48.982;12.064;2022-07-10T00:04:54;3.47;;;3.28;;
12052;SDS011;6087;48.982;12.064;2022-07-10T00:07:20;3.08;;;2.80;;
12052;SDS011;6087;48.982;12.064;2022-07-10T00:09:49;2.95;;;2.83;;
12052;SDS011;6087;48.982;12.064;2022-07-10T00:12:16;3.92;;;2.97;;
12052;SDS011;6087;48.982;12.064;2022-07-10T00:14:43;3.90;;;3.28;;
12052;SDS011;6087;48.982;12.064;2022-07-10T00:17:09;3.65;;;3.35;;
12052;SDS011;6087;48.982;12.064;2022-07-10T00:19:36;3.38;;;3.15;;
12052;SDS011;6087;48.982;12.064;2022-07-10T00:22:03;3.67;;;3.45;;
12052;SDS011;6087;48.982;12.064;2022-07-10T00:24:30;3.45;;;3.17;;
12052;SDS011;6087;48.982;12.064;2022-07-10T00:26:59;6.13;;;3.33;;
12052;SDS011;6087;48.982;12.064;2022-07-10T00:29:26;3.63;;;3.33;;
12052;SDS011;6087;48.982;12.064;2022-07-10T00:31:53;5.78;;;3.50;;
12052;SDS011;6087;48.982;12.064;2022-07-10T00:34:20;3.88;;;3.47;;
12052;SDS011;6087;48.982;12.064;2022-07-10T00:36:46;3.53;;;3.22;;
12052;SDS011;6087;48.982;12.064;2022-07-10T00:39:13;4.70;;;3.80;;
12052;SDS011;6087;48.982;12.064;2022-07-10T00:41:40;3.80;;;3.50;;
12052;SDS011;6087;48.982;12.064;2022-07-10T00:44:09;3.70;;;3.40;;
12052;SDS011;6087;48.982;12.064;2022-07-10T00:46:37;3.55;;;3.25;;
12052;SDS011;6087;48.982;12.064;2022-07-10T00:49:05;3.47;;;3.17;;
12052;SDS011;6087;48.982;12.064;2022-07-10T00:51:32;3.63;;;3.30;;
12052;SDS011;6087;48.982;12.064;2022-07-10T00:53:59;3.95;;;3.55;;
12052;SDS011;6087;48.982;12.064;2022-07-10T00:56:27;4.00;;;3.42;;
12052;SDS011;6087;48.982;12.064;2022-07-10T00:58:54;3.53;;;3.22;;
12052;SDS011;6087;48.982;12.064;2022-07-10T01:01:23;4.20;;;3.25;;
12052;SDS011;6087;48.982;12.064;2022-07-10T01:03:50;5.50;;;4.25;;
12052;SDS011;6087;48.982;12.064;2022-07-10T01:06:17;4.05;;;3.58;;
12052;SDS011;6087;48.982;12.064;2022-07-10T01:08:44;4.03;;;3.55;;
12052;SDS011;6087;48.982;12.064;2022-07-10T01:11:12;3.60;;;3.30;;
12052;SDS011;6087;48.982;12.064;2022-07-10T01:13:40;3.58;;;3.38;;
12052;SDS011;6087;48.982;12.064;2022-07-10T01:16:08;3.47;;;3.17;;
12052;SDS011;6087;48.982;12.064;2022-07-10T01:18:37;4.20;;;2.90;;
12052;SDS011;6087;48.982;12.064;2022-07-10T01:21:05;3.65;;;3.33;;
12052;SDS011;6087;48.982;12.064;2022-07-10T01:23:48;4.03;;;3.63;;
12052;SDS011;6087;48.982;12.064;2022-07-10T01:26:15;4.38;;;3.78;;
12052;SDS011;6087;48.982;12.064;2022-07-10T01:28:42;3.85;;;3.35;;
12052;SDS011;6087;48.982;12.064;2022-07-10T01:31:09;4.75;;;3.75;;
12052;SDS011;6087;48.982;12.064;2022-07-10T01:33:36;4.10;;;3.72;;
12052;SDS011;6087;48.982;12.064;2022-07-10T01:36:03;4.35;;;3.95;;
12052;SDS011;6087;48.982;12.064;2022-07-10T01:38:33;4.30;;;4.00;;
12052;SDS011;6087;48.982;12.064;2022-07-10T01:41:00;3.55;;;3.22;;
12052;SDS011;6087;48.982;12.064;2022-07-10T01:43:27;3.88;;;3.50;;
12052;SDS011;6087;48.982;12.064;2022-07-10T01:45:54;6.05;;;4.07;;
12052;SDS011;6087;48.982;12.064;2022-07-10T01:48:21;3.67;;;3.38;;
12052;SDS011;6087;48.982;12.064;2022-07-10T01:50:48;5.97;;;4.15;;
12052;SDS011;6087;48.982;12.064;2022-07-10T01:53:16;4.80;;;4.40;;
12052;SDS011;6087;48.982;12.064;2022-07-10T01:55:43;7.43;;;3.58;;
12052;SDS011;6087;48.982;12.064;2022-07-10T01:58:10;4.35;;;3.63;;
12052;SDS011;6087;48.982;12.064;2022-07-10T02:00:36;3.78;;;3.47;;
12052;SDS011;6087;48.982;12.064;2022-07-10T02:03:03;4.63;;;3.70;;
12052;SDS011;6087;48.982;12.064;2022-07-10T02:05:47;4.50;;;3.72;;
12052;SDS011;6087;48.982;12.064;2022-07-10T02:08:16;3.97;;;3.58;;
12052;SDS011;6087;48.982;12.064;2022-07-10T02:10:43;3.75;;;3.45;;
12052;SDS011;6087;48.982;12.064;2022-07-10T02:13:10;4.22;;;3.92;;
12052;SDS011;6087;48.982;12.064;2022-07-10T02:15:39;4.13;;;3.72;;
12052;SDS011;6087;48.982;12.064;2022-07-10T02:18:06;5.53;;;3.63;;
12052;SDS011;6087;48.982;12.064;2022-07-10T02:20:46;4.28;;;3.50;;
12052;SDS011;6087;48.982;12.064;2022-07-10T02:23:13;4.18;;;3.78;;
12052;SDS011;6087;48.982;12.064;2022-07-10T02:25:41;5.80;;;3.45;;
12052;SDS011;6087;48.982;12.064;2022-07-10T02:28:08;4.82;;;3.45;;
12052;SDS011;6087;48.982;12.064;2022-07-10T02:30:35;3.90;;;3.55;;
12052;SDS011;6087;48.982;12.064;2022-07-10T02:33:02;5.18;;;3.67;;
12052;SDS011;6087;48.982;12.064;2022-07-10T02:35:29;3.67;;;3.22;;
12052;SDS011;6087;48.982;12.064;2022-07-10T02:37:56;4.22;;;3.90;;
12052;SDS011;6087;48.982;12.064;2022-07-10T02:40:23;3.95;;;3.42;;
12052;SDS011;6087;48.982;12.064;2022-07-10T02:42:52;6.35;;;3.60;;
12052;SDS011;6087;48.982;12.064;2022-07-10T02:45:18;4.38;;;3.70;;
12052;SDS011;6087;48.982;12.064;2022-07-10T02:47:45;4.55;;;4.15;;
12052;SDS011;6087;48.982;12.064;2022-07-10T02:50:12;4.53;;;4.13;;
12052;SDS011;6087;48.982;12.064;2022-07-10T02:52:39;3.92;;;3.55;;
12052;SDS011;6087;48.982;12.064;2022-07-10T02:55:07;4.40;;;3.28;;
12052;SDS011;6087;48.982;12.064;2022-07-10T02:57:34;3.75;;;3.45;;
12052;SDS011;6087;48.982;12.064;2022-07-10T03:00:03;4.03;;;3.63;;
12052;SDS011;6087;48.982;12.064;2022-07-10T03:02:30;4.43;;;4.03;;
12052;SDS011;6087;48.982;12.064;2022-07-10T03:04:57;3.50;;;3.13;;
12052;SDS011;6087;48.982;12.064;2022-07-10T03:07:24;6.22;;;3.30;;
12052;SDS011;6087;48.982;12.064;2022-07-10T03:09:51;9.57;;;3.80;;
12052;SDS011;6087;48.982;12.064;2022-07-10T03:12:18;3.40;;;3.10;;
12052;SDS011;6087;48.982;12.064;2022-07-10T03:14:45;4.03;;;3.08;;
12052;SDS011;6087;48.982;12.064;2022-07-10T03:17:14;5.28;;;3.67;;
12052;SDS011;6087;48.982;12.064;2022-07-10T03:19:40;3.20;;;2.85;;
12052;SDS011;6087;48.982;12.064;2022-07-10T03:22:07;4.90;;;3.58;;
12052;SDS011;6087;48.982;12.064;2022-07-10T03:24:34;3.45;;;2.85;;
12052;SDS011;6087;48.982;12.064;2022-07-10T03:27:01;7.10;;;3.35;;
12052;SDS011;6087;48.982;12.064;2022-07-10T03:29:30;3.53;;;3.22;;
12052;SDS011;6087;48.982;12.064;2022-07-10T03:31:57;5.60;;;3.38;;
12052;SDS011;6087;48.982;12.064;2022-07-10T03:34:25;3.35;;;3.05;;
12052;SDS011;6087;48.982;12.064;2022-07-10T03:36:52;3.38;;;3.08;;
12052;SDS011;6087;48.982;12.064;2022-07-10T03:39:19;3.30;;;3.00;;
12052;SDS011;6087;48.982;12.064;2022-07-10T03:41:46;3.45;;;3.15;;
12052;SDS011;6087;48.982;12.064;2022-07-10T03:44:13;6.45;;;3.35;;
12052;SDS011;6087;48.982;12.064;2022-07-10T03:46:40;3.30;;;2.70;;
12052;SDS011;6087;48.982;12.064;2022-07-10T03:49:07;6.22;;;3.38;;
12052;SDS011;6087;48.982;12.064;2022-07-10T03:51:35;4.45;;;2.83;;
12052;SDS011;6087;48.982;12.064;2022-07-10T03:54:02;3.13;;;2.83;;
12052;SDS011;6087;48.982;12.064;2022-07-10T03:56:29;5.25;;;2.85;;
12052;SDS011;6087;48.982;12.064;2022-07-10T03:59:14;4.38;;;3.20;;
12052;SDS011;6087;48.982;12.064;2022-07-10T04:01:40;3.08;;;2.78;;
12052;SDS011;6087;48.982;12.064;2022-07-10T04:04:07;6.75;;;3.17;;
12052;SDS011;6087;48.982;12.064;2022-07-10T04:06:36;2.90;;;2.70;;
12052;SDS011;6087;48.982;12.064;2022-07-10T04:09:03;4.70;;;3.00;;
12052;SDS011;6087;48.982;12.064;2022-07-10T04:11:30;5.85;;;3.55;;
12052;SDS011;6087;48.982;12.064;2022-07-10T04:13:57;3.10;;;2.80;;
12052;SDS011;6087;48.982;12.064;2022-07-10T04:16:25;4.03;;;2.80;;
12052;SDS011;6087;48.982;12.064;2022-07-10T04:18:52;3.38;;;2.45;;
12052;SDS011;6087;48.982;12.064;2022-07-10T04:21:19;2.90;;;2.70;;
12052;SDS011;6087;48.982;12.064;2022-07-10T04:23:47;4.80;;;2.65;;
12052;SDS011;6087;48.982;12.064;2022-07-10T04:26:14;2.80;;;2.38;;
12052;SDS011;6087;48.982;12.064;2022-07-10T04:28:41;3.17;;;2.88;;
12052;SDS011;6087;48.982;12.064;2022-07-10T04:31:08;5.25;;;2.45;;
12052;SDS011;6087;48.982;12.064;2022-07-10T04:33:35;2.80;;;2.60;;
12052;SDS011;6087;48.982;12.064;2022-07-10T04:36:02;4.25;;;2.47;;
12052;SDS011;6087;48.982;12.064;2022-07-10T04:38:29;2.47;;;2.28;;
12052;SDS011;6087;48.982;12.064;2022-07-10T04:40:58;4.85;;;2.40;;
12052;SDS011;6087;48.982;12.064;2022-07-10T04:43:25;4.28;;;2.22;;
12052;SDS011;6087;48.982;12.064;2022-07-10T04:45:52;2.53;;;2.33;;
12052;SDS011;6087;48.982;12.064;2022-07-10T04:48:19;2.50;;;2.30;;
12052;SDS011;6087;48.982;12.064;2022-07-10T04:50:46;2.55;;;2.35;;
12052;SDS011;6087;48.982;12.064;2022-07-10T04:53:12;3.92;;;2.40;;
12052;SDS011;6087;48.982;12.064;2022-07-10T04:55:39;2.15;;;2.03;;
12052;SDS011;6087;48.982;12.064;2022-07-10T04:58:08;3.08;;;2.40;;
12052;SDS011;6087;48.982;12.064;2022-07-10T05:00:35;13.90;;;3.00;;
12052;SDS011;6087;48.982;12.064;2022-07-10T05:03:02;3.35;;;2.55;;
12052;SDS011;6087;48.982;12.064;2022-07-10T05:05:29;6.30;;;3.05;;
12052;SDS011;6087;48.982;12.064;2022-07-10T05:07:56;2.60;;;2.40;;
12052;SDS011;6087;48.982;12.064;2022-07-10T05:10:23;3.13;;;2.30;;
12052;SDS011;6087;48.982;12.064;2022-07-10T05:12:50;3.80;;;2.40;;
12052;SDS011;6087;48.982;12.064;2022-07-10T05:15:18;2.53;;;2.33;;
12052;SDS011;6087;48.982;12.064;2022-07-10T05:17:45;4.40;;;2.00;;
12052;SDS011;6087;48.982;12.064;2022-07-10T05:20:12;5.32;;;1.88;;
12052;SDS011;6087;48.982;12.064;2022-07-10T05:22:39;3.30;;;1.98;;
12052;SDS011;6087;48.982;12.064;2022-07-10T05:25:06;2.17;;;1.98;;
12052;SDS011;6087;48.982;12.064;2022-07-10T05:27:33;3.67;;;2.13;;
12052;SDS011;6087;48.982;12.064;2022-07-10T05:30:00;4.15;;;1.70;;
12052;SDS011;6087;48.982;12.064;2022-07-10T05:32:28;7.45;;;2.15;;
12052;SDS011;6087;48.982;12.064;2022-07-10T05:34:57;1.95;;;1.75;;
12052;SDS011;6087;48.982;12.064;2022-07-10T05:37:24;2.42;;;1.70;;
12052;SDS011;6087;48.982;12.064;2022-07-10T05:39:51;2.95;;;2.28;;
12052;SDS011;6087;48.982;12.064;2022-07-10T05:42:18;2.67;;;1.60;;
12052;SDS011;6087;48.982;12.064;2022-07-10T05:44:45;2.05;;;1.58;;
12052;SDS011;6087;48.982;12.064;2022-07-10T05:47:12;7.32;;;2.10;;
12052;SDS011;6087;48.982;12.064;2022-07-10T05:49:40;1.98;;;1.83;;
12052;SDS011;6087;48.982;12.064;2022-07-10T05:52:07;2.03;;;1.73;;
12052;SDS011;6087;48.982;12.064;2022-07-10T05:54:34;3.30;;;2.38;;
12052;SDS011;6087;48.982;12.064;2022-07-10T05:57:01;2.30;;;2.08;;
12052;SDS011;6087;48.982;12.064;2022-07-10T05:59:28;3.65;;;1.88;;
12052;SDS011;6087;48.982;12.064;2022-07-10T06:01:55;2.47;;;1.77;;
12052;SDS011;6087;48.982;12.064;2022-07-10T06:04:21;3.05;;;2.20;;
12052;SDS011;6087;48.982;12.064;2022-07-10T06:06:50;2.70;;;2.05;;
12052;SDS011;6087;48.982;12.064;2022-07-10T06:09:17;4.53;;;2.60;;
12052;SDS011;6087;48.982;12.064;2022-07-10T06:11:44;3.80;;;1.75;;
12052;SDS011;6087;48.982;12.064;2022-07-10T06:14:13;4.07;;;1.92;;
12052;SDS011;6087;48.982;12.064;2022-07-10T06:16:40;2.53;;;2.00;;
12052;SDS011;6087;48.982;12.064;2022-07-10T06:19:07;5.68;;;2.05;;
12052;SDS011;6087;48.982;12.064;2022-07-10T06:21:34;4.22;;;1.85;;
12052;SDS011;6087;48.982;12.064;2022-07-10T06:24:02;3.03;;;2.28;;
12052;SDS011;6087;48.982;12.064;2022-07-10T06:26:29;6.07;;;2.22;;
12052;SDS011;6087;48.982;12.064;2022-07-10T06:28:56;3.33;;;1.98;;
12052;SDS011;6087;48.982;12.064;2022-07-10T06:31:23;2.30;;;1.65;;
12052;SDS011;6087;48.982;12.064;2022-07-10T06:33:50;2.28;;;2.08;;
12052;SDS011;6087;48.982;12.064;2022-07-10T06:36:17;2.47;;;2.28;;
12052;SDS011;6087;48.982;12.064;2022-07-10T06:38:44;3.53;;;2.15;;
12052;SDS011;6087;48.982;12.064;2022-07-10T06:41:12;2.03;;;1.83;;
12052;SDS011;6087;48.982;12.064;2022-07-10T06:43:39;3.13;;;2.15;;
12052;SDS011;6087;48.982;12.064;2022-07-10T06:46:06;3.40;;;2.10;;
12052;SDS011;6087;48.982;12.064;2022-07-10T06:48:33;4.07;;;2.10;;
12052;SDS011;6087;48.982;12.064;2022-07-10T06:51:00;3.17;;;1.83;;
12052;SDS011;6087;48.982;12.064;2022-07-10T06:53:27;3.20;;;1.73;;
12052;SDS011;6087;48.982;12.064;2022-07-10T06:55:54;4.22;;;2.00;;
12052;SDS011;6087;48.982;12.064;2022-07-10T06:58:23;5.57;;;1.98;;
12052;SDS011;6087;48.982;12.064;2022-07-10T07:00:50;4.18;;;2.85;;
12052;SDS011;6087;48.982;12.064;2022-07-10T07:03:17;2.60;;;1.90;;
12052;SDS011;6087;48.982;12.064;2022-07-10T07:05:44;1.83;;;1.40;;
12052;SDS011;6087;48.982;12.064;2022-07-10T07:08:10;2.30;;;1.60;;
12052;SDS011;6087;48.982;12.064;2022-07-10T07:10:38;2.03;;;1.90;;
12052;SDS011;6087;48.982;12.064;2022-07-10T07:13:05;3.35;;;1.60;;
12052;SDS011;6087;48.982;12.064;2022-07-10T07:15:35;4.22;;;1.65;;
12052;SDS011;6087;48.982;12.064;2022-07-10T07:18:07;3.70;;;1.50;;
12052;SDS011;6087;48.982;12.064;2022-07-10T07:20:37;3.63;;;1.75;;
12052;SDS011;6087;48.982;12.064;2022-07-10T07:23:21;2.47;;;1.45;;
12052;SDS011;6087;48.982;12.064;2022-07-10T07:25:49;1.52;;;1.42;;
12052;SDS011;6087;48.982;12.064;2022-07-10T07:28:17;2.08;;;1.23;;
12052;SDS011;6087;48.982;12.064;2022-07-10T07:30:47;1.95;;;1.52;;
12052;SDS011;6087;48.982;12.064;2022-07-10T07:33:14;1.17;;;1.08;;
12052;SDS011;6087;48.982;12.064;2022-07-10T07:35:41;2.65;;;1.48;;
12052;SDS011;6087;48.982;12.064;2022-07-10T07:38:09;1.80;;;1.25;;
12052;SDS011;6087;48.982;12.064;2022-07-10T07:40:36;2.20;;;1.70;;
12052;SDS011;6087;48.982;12.064;2022-07-10T07:43:03;1.27;;;0.80;;
12052;SDS011;6087;48.982;12.064;2022-07-10T07:45:30;1.17;;;0.90;;
12052;SDS011;6087;48.982;12.064;2022-07-10T07:47:59;2.67;;;1.05;;
12052;SDS011;6087;48.982;12.064;2022-07-10T07:50:28;2.08;;;1.15;;
12052;SDS011;6087;48.982;12.064;2022-07-10T07:52:57;1.45;;;0.88;;
12052;SDS011;6087;48.982;12.064;2022-07-10T07:55:24;3.58;;;1.00;;
12052;SDS011;6087;48.982;12.064;2022-07-10T07:57:51;1.42;;;0.85;;
12052;SDS011;6087;48.982;12.064;2022-07-10T08:00:19;0.70;;;0.70;;
12052;SDS011;6087;48.982;12.064;2022-07-10T08:02:48;1.13;;;0.90;;
12052;SDS011;6087;48.982;12.064;2022-07-10T08:05:16;2.97;;;1.00;;
12052;SDS011;6087;48.982;12.064;2022-07-10T08:07:44;1.40;;;0.90;;
12052;SDS011;6087;48.982;12.064;2022-07-10T08:10:13;4.00;;;1.23;;
12052;SDS011;6087;48.982;12.064;2022-07-10T08:12:41;3.00;;;1.20;;
12052;SDS011;6087;48.982;12.064;2022-07-10T08:15:09;1.55;;;0.77;;
12052;SDS011;6087;48.982;12.064;2022-07-10T08:17:37;0.88;;;0.80;;
12052;SDS011;6087;48.982;12.064;2022-07-10T08:20:05;2.20;;;1.20;;
12052;SDS011;6087;48.982;12.064;2022-07-10T08:22:38;2.45;;;0.90;;
12052;SDS011;6087;48.982;12.064;2022-07-10T08:25:06;3.28;;;1.00;;
12052;SDS011;6087;48.982;12.064;2022-07-10T08:27:34;2.25;;;1.05;;
12052;SDS011;6087;48.982;12.064;2022-07-10T08:30:01;1.70;;;0.70;;
12052;SDS011;6087;48.982;12.064;2022-07-10T08:32:29;1.27;;;0.80;;
12052;SDS011;6087;48.982;12.064;2022-07-10T08:34:56;2.05;;;0.70;;
12052;SDS011;6087;48.982;12.064;2022-07-10T08:37:24;2.25;;;0.70;;
12052;SDS011;6087;48.982;12.064;2022-07-10T08:39:52;2.70;;;1.15;;
12052;SDS011;6087;48.982;12.064;2022-07-10T08:42:19;0.90;;;0.60;;
12052;SDS011;6087;48.982;12.064;2022-07-10T08:44:47;2.90;;;1.25;;
12052;SDS011;6087;48.982;12.064;2022-07-10T08:47:14;1.65;;;0.82;;
12052;SDS011;6087;48.982;12.064;2022-07-10T08:49:47;1.30;;;0.88;;
12052;SDS011;6087;48.982;12.064;2022-07-10T08:52:20;3.83;;;0.80;;
12052;SDS011;6087;48.982;12.064;2022-07-10T08:54:53;1.27;;;0.90;;
12052;SDS011;6087;48.982;12.064;2022-07-10T08:57:21;0.80;;;0.73;;
12052;SDS011;6087;48.982;12.064;2022-07-10T08:59:50;1.92;;;0.80;;
12052;SDS011;6087;48.982;12.064;2022-07-10T09:02:16;2.72;;;1.00;;
12052;SDS011;6087;48.982;12.064;2022-07-10T09:04:43;1.60;;;0.80;;
12052;SDS011;6087;48.982;12.064;2022-07-10T09:07:10;3.05;;;0.90;;
12052;SDS011;6087;48.982;12.064;2022-07-10T09:09:50;1.92;;;0.90;;
12052;SDS011;6087;48.982;12.064;2022-07-10T09:12:23;0.80;;;0.60;;
12052;SDS011;6087;48.982;12.064;2022-07-10T09:14:51;1.33;;;0.70;;
12052;SDS011;6087;48.982;12.064;2022-07-10T09:17:18;0.98;;;0.70;;
12052;SDS011;6087;48.982;12.064;2022-07-10T09:19:45;1.67;;;0.80;;
12052;SDS011;6087;48.982;12.064;2022-07-10T09:22:12;1.02;;;0.82;;
12052;SDS011;6087;48.982;12.064;2022-07-10T09:24:41;3.30;;;0.93;;
12052;SDS011;6087;48.982;12.064;2022-07-10T09:27:10;2.22;;;1.00;;
12052;SDS011;6087;48.982;12.064;2022-07-10T09:29:47;2.95;;;0.70;;
12052;SDS011;6087;48.982;12.064;2022-07-10T09:32:20;2.22;;;0.95;;
12052;SDS011;6087;48.982;12.064;2022-07-10T09:34:47;0.85;;;0.60;;
12052;SDS011;6087;48.982;12.064;2022-07-10T09:37:36;2.40;;;1.00;;
12052;SDS011;6087;48.982;12.064;2022-07-10T09:40:06;2.00;;;0.68;;
12052;SDS011;6087;48.982;12.064;2022-07-10T09:42:34;2.63;;;1.08;;
12052;SDS011;6087;48.982;12.064;2022-07-10T09:45:16;2.15;;;0.70;;
12052;SDS011;6087;48.982;12.064;2022-07-10T09:47:45;2.78;;;0.65;;
12052;SDS011;6087;48.982;12.064;2022-07-10T09:50:23;0.70;;;0.68;;
12052;SDS011;6087;48.982;12.064;2022-07-10T09:52:52;1.38;;;0.75;;
12052;SDS011;6087;48.982;12.064;2022-07-10T09:55:21;0.82;;;0.82;;
12052;SDS011;6087;48.982;12.064;2022-07-10T09:57:52;1.38;;;0.60;;
12052;SDS011;6087;48.982;12.064;2022-07-10T10:00:24;1.10;;;0.68;;
12052;SDS011;6087;48.982;12.064;2022-07-10T10:02:56;2.28;;;0.73;;
12052;SDS011;6087;48.982;12.064;2022-07-10T10:05:26;1.38;;;0.80;;
12052;SDS011;6087;48.982;12.064;2022-07-10T10:08:04;0.73;;;0.60;;
12052;SDS011;6087;48.982;12.064;2022-07-10T10:10:38;2.13;;;0.70;;
12052;SDS011;6087;48.982;12.064;2022-07-10T10:13:10;1.35;;;0.88;;
12052;SDS011;6087;48.982;12.064;2022-07-10T10:15:39;4.70;;;0.80;;
12052;SDS011;6087;48.982;12.064;2022-07-10T10:18:08;1.05;;;0.82;;
12052;SDS011;6087;48.982;12.064;2022-07-10T10:20:36;2.10;;;1.00;;
12052;SDS011;6087;48.982;12.064;2022-07-10T10:23:03;3.00;;;0.88;;
12052;SDS011;6087;48.982;12.064;2022-07-10T10:25:31;2.30;;;0.90;;
12052;SDS011;6087;48.982;12.064;2022-07-10T10:27:59;0.98;;;0.90;;
12052;SDS011;6087;48.982;12.064;2022-07-10T10:30:28;1.30;;;0.80;;
12052;SDS011;6087;48.982;12.064;2022-07-10T10:32:58;1.77;;;1.00;;
12052;SDS011;6087;48.982;12.064;2022-07-10T10:38:20;3.15;;;1.13;;
12052;SDS011;6087;48.982;12.064;2022-07-10T10:40:47;2.90;;;0.80;;
12052;SDS011;6087;48.982;12.064;2022-07-10T10:43:15;1.70;;;0.85;;
12052;SDS011;6087;48.982;12.064;2022-07-10T10:45:43;1.40;;;1.00;;
12052;SDS011;6087;48.982;12.064;2022-07-10T10:48:12;3.35;;;0.93;;
12052;SDS011;6087;48.982;12.064;2022-07-10T10:50:40;4.00;;;1.17;;
12052;SDS011;6087;48.982;12.064;2022-07-10T10:53:18;2.50;;;1.23;;
12052;SDS011;6087;48.982;12.064;2022-07-10T10:58:49;1.95;;;1.00;;
12052;SDS011;6087;48.982;12.064;2022-07-10T11:01:24;0.68;;;0.60;;
12052;SDS011;6087;48.982;12.064;2022-07-10T11:06:46;3.05;;;0.82;;
12052;SDS011;6087;48.982;12.064;2022-07-10T11:09:24;2.20;;;0.90;;
12052;SDS011;6087;48.982;12.064;2022-07-10T11:11:58;4.35;;;1.33;;
12052;SDS011;6087;48.982;12.064;2022-07-10T11:14:26;3.08;;;0.88;;
12052;SDS011;6087;48.982;12.064;2022-07-10T11:16:54;1.05;;;0.50;;
12052;SDS011;6087;48.982;12.064;2022-07-10T11:19:23;1.45;;;0.70;;
12052;SDS011;6087;48.982;12.064;2022-07-10T11:21:54;1.20;;;0.57;;
12052;SDS011;6087;48.982;12.064;2022-07-10T11:24:34;0.60;;;0.60;;
12052;SDS011;6087;48.982;12.064;2022-07-10T11:27:16;2.08;;;0.65;;
12052;SDS011;6087;48.982;12.064;2022-07-10T11:29:58;0.77;;;0.55;;
12052;SDS011;6087;48.982;12.064;2022-07-10T11:32:25;0.85;;;0.50;;
12052;SDS011;6087;48.982;12.064;2022-07-10T11:34:54;0.65;;;0.60;;
12052;SDS011;6087;48.982;12.064;2022-07-10T11:37:22;0.60;;;0.40;;
12052;SDS011;6087;48.982;12.064;2022-07-10T11:39:53;0.52;;;0.40;;
12052;SDS011;6087;48.982;12.064;2022-07-10T11:42:47;2.85;;;0.47;;
12052;SDS011;6087;48.982;12.064;2022-07-10T11:48:04;2.15;;;0.57;;
12052;SDS011;6087;48.982;12.064;2022-07-10T11:50:35;1.10;;;0.43;;
12052;SDS011;6087;48.982;12.064;2022-07-10T11:53:03;1.33;;;0.40;;
12052;SDS011;6087;48.982;12.064;2022-07-10T11:58:53;0.98;;;0.43;;
12052;SDS011;6087;48.982;12.064;2022-07-10T12:01:21;1.92;;;0.50;;
12052;SDS011;6087;48.982;12.064;2022-07-10T12:03:53;1.95;;;0.50;;
12052;SDS011;6087;48.982;12.064;2022-07-10T12:06:23;1.45;;;0.50;;
12052;SDS011;6087;48.982;12.064;2022-07-10T12:08:51;1.05;;;0.50;;
12052;SDS011;6087;48.982;12.064;2022-07-10T12:11:19;1.90;;;0.50;;
12052;SDS011;6087;48.982;12.064;2022-07-10T12:13:48;1.27;;;0.40;;
12052;SDS011;6087;48.982;12.064;2022-07-10T12:16:15;2.38;;;0.30;;
12052;SDS011;6087;48.982;12.064;2022-07-10T12:18:43;0.35;;;0.35;;
12052;SDS011;6087;48.982;12.064;2022-07-10T12:21:11;2.55;;;0.45;;
12052;SDS011;6087;48.982;12.064;2022-07-10T12:23:41;3.72;;;0.50;;
12052;SDS011;6087;48.982;12.064;2022-07-10T12:26:11;0.77;;;0.43;;
12052;SDS011;6087;48.982;12.064;2022-07-10T12:28:55;0.35;;;0.35;;
12052;SDS011;6087;48.982;12.064;2022-07-10T12:31:24;0.30;;;0.25;;
12052;SDS011;6087;48.982;12.064;2022-07-10T12:33:52;0.45;;;0.22;;
12052;SDS011;6087;48.982;12.064;2022-07-10T12:36:26;0.65;;;0.20;;
12052;SDS011;6087;48.982;12.064;2022-07-10T12:39:09;1.75;;;0.20;;
12052;SDS011;6087;48.982;12.064;2022-07-10T12:44:32;0.55;;;0.30;;
12052;SDS011;6087;48.982;12.064;2022-07-10T12:47:01;1.40;;;0.22;;
12052;SDS011;6087;48.982;12.064;2022-07-10T12:49:28;0.57;;;0.30;;
12052;SDS011;6087;48.982;12.064;2022-07-10T12:51:55;1.17;;;0.28;;
12052;SDS011;6087;48.982;12.064;2022-07-10T12:54:36;0.55;;;0.15;;
12052;SDS011;6087;48.982;12.064;2022-07-10T12:57:04;0.32;;;0.20;;
12052;SDS011;6087;48.982;12.064;2022-07-10T12:59:32;0.88;;;0.20;;
12052;SDS011;6087;48.982;12.064;2022-07-10T13:02:13;0.30;;;0.20;;
12052;SDS011;6087;48.982;12.064;2022-07-10T13:04:51;0.50;;;0.25;;
12052;SDS011;6087;48.982;12.064;2022-07-10T13:07:19;0.47;;;0.30;;
12052;SDS011;6087;48.982;12.064;2022-07-10T13:09:56;0.68;;;0.30;;
12052;SDS011;6087;48.982;12.064;2022-07-10T13:12:25;0.68;;;0.40;;
12052;SDS011;6087;48.982;12.064;2022-07-10T13:14:52;1.58;;;0.50;;
12052;SDS011;6087;48.982;12.064;2022-07-10T13:17:19;0.88;;;0.40;;
12052;SDS011;6087;48.982;12.064;2022-07-10T13:19:46;1.20;;;0.30;;
12052;SDS011;6087;48.982;12.064;2022-07-10T13:22:13;0.70;;;0.20;;
12052;SDS011;6087;48.982;12.064;2022-07-10T13:24:40;0.25;;;0.20;;
12052;SDS011;6087;48.982;12.064;2022-07-10T13:27:08;0.60;;;0.28;;
12052;SDS011;6087;48.982;12.064;2022-07-10T13:29:35;0.35;;;0.32;;
12052;SDS011;6087;48.982;12.064;2022-07-10T13:32:03;0.60;;;0.30;;
12052;SDS011;6087;48.982;12.064;2022-07-10T13:34:30;0.38;;;0.38;;
12052;SDS011;6087;48.982;12.064;2022-07-10T13:36:57;1.98;;;0.50;;
12052;SDS011;6087;48.982;12.064;2022-07-10T13:39:24;1.20;;;0.52;;
12052;SDS011;6087;48.982;12.064;2022-07-10T13:41:51;1.05;;;0.38;;
12052;SDS011;6087;48.982;12.064;2022-07-10T13:44:20;0.80;;;0.57;;
12052;SDS011;6087;48.982;12.064;2022-07-10T13:46:47;1.27;;;0.45;;
12052;SDS011;6087;48.982;12.064;2022-07-10T13:49:14;0.55;;;0.40;;
12052;SDS011;6087;48.982;12.064;2022-07-10T13:51:41;1.48;;;0.30;;
12052;SDS011;6087;48.982;12.064;2022-07-10T13:54:08;0.88;;;0.40;;
12052;SDS011;6087;48.982;12.064;2022-07-10T13:56:34;0.20;;;0.20;;
12052;SDS011;6087;48.982;12.064;2022-07-10T13:59:01;0.28;;;0.20;;
12052;SDS011;6087;48.982;12.064;2022-07-10T14:01:30;0.93;;;0.60;;
12052;SDS011;6087;48.982;12.064;2022-07-10T14:03:57;0.43;;;0.28;;
12052;SDS011;6087;48.982;12.064;2022-07-10T14:06:23;0.57;;;0.35;;
12052;SDS011;6087;48.982;12.064;2022-07-10T14:08:50;0.82;;;0.30;;
12052;SDS011;6087;48.982;12.064;2022-07-10T14:11:17;1.15;;;0.50;;
12052;SDS011;6087;48.982;12.064;2022-07-10T14:13:44;0.20;;;0.20;;
12052;SDS011;6087;48.982;12.064;2022-07-10T14:16:12;0.77;;;0.35;;
12052;SDS011;6087;48.982;12.064;2022-07-10T14:18:40;1.15;;;0.40;;
12052;SDS011;6087;48.982;12.064;2022-07-10T14:21:09;0.38;;;0.38;;
12052;SDS011;6087;48.982;12.064;2022-07-10T14:23:38;1.48;;;0.35;;
12052;SDS011;6087;48.982;12.064;2022-07-10T14:26:09;0.60;;;0.50;;
12052;SDS011;6087;48.982;12.064;2022-07-10T14:28:36;2.58;;;0.60;;
12052;SDS011;6087;48.982;12.064;2022-07-10T14:31:04;0.55;;;0.55;;
12052;SDS011;6087;48.982;12.064;2022-07-10T14:33:32;1.67;;;0.22;;
12052;SDS011;6087;48.982;12.064;2022-07-10T14:36:02;3.00;;;0.45;;
12052;SDS011;6087;48.982;12.064;2022-07-10T14:38:30;0.90;;;0.28;;
12052;SDS011;6087;48.982;12.064;2022-07-10T14:40:56;0.90;;;0.40;;
12052;SDS011;6087;48.982;12.064;2022-07-10T14:43:23;1.00;;;0.73;;
12052;SDS011;6087;48.982;12.064;2022-07-10T14:45:51;1.48;;;0.47;;
12052;SDS011;6087;48.982;12.064;2022-07-10T14:48:18;1.90;;;0.40;;
12052;SDS011;6087;48.982;12.064;2022-07-10T14:50:45;0.30;;;0.30;;
12052;SDS011;6087;48.982;12.064;2022-07-10T14:53:13;0.35;;;0.30;;
12052;SDS011;6087;48.982;12.064;2022-07-10T14:55:40;1.13;;;0.30;;
12052;SDS011;6087;48.982;12.064;2022-07-10T14:58:07;1.40;;;0.52;;
12052;SDS011;6087;48.982;12.064;2022-07-10T15:00:34;0.90;;;0.40;;
12052;SDS011;6087;48.982;12.064;2022-07-10T15:03:01;1.63;;;0.35;;
12052;SDS011;6087;48.982;12.064;2022-07-10T15:05:28;1.25;;;0.88;;
12052;SDS011;6087;48.982;12.064;2022-07-10T15:07:55;1.83;;;0.30;;
12052;SDS011;6087;48.982;12.064;2022-07-10T15:10:23;1.35;;;0.50;;
12052;SDS011;6087;48.982;12.064;2022-07-10T15:12:50;0.55;;;0.35;;
12052;SDS011;6087;48.982;12.064;2022-07-10T15:15:17;2.58;;;0.65;;